Weather observations for the past three days for
Giddings, Giddings-Lee County Airport
Imperial (Metric)
Date Time (cdt) Wind (mph) Vis. (mi.) Weather Sky Cond. Temperature (ºF) Relative Humidity Wind Chill (°F) Heat Index (°F) Pressure Precipitation (in)
Air Dwpt 6 hour altimeter (in) sea level (mb) 1 hr 3 hr 6 hr
Max. Min.
03 02:55 S 6 0.00 NULL NULL 78.8 75.6 90% 82 29.95 0.0
03 02:35 S 5 0.00 NULL NULL 78.3 75.4 91% 81 29.96 0.0
03 02:15 S 5 0.00 NULL NULL 77.9 74.8 90% 80 29.96 0.0
03 01:55 S 5 10.00 Fair CLR 77.5 74.5 90% 79 29.96 0.0
03 01:35 S 3 0.00 NULL NULL 77.4 74.3 90% 79 29.97 0.0
03 01:15 S 3 0.00 NULL NULL 77.2 73.4 88% 79 29.96 0.0
03 00:55 S 5 0.00 NULL NULL 77 72.7 97.3 75.6 87% 78 29.97 0.0 0.84
03 00:35 S 6 0.00 Fair CLR 76.1 71.4 86% 77 29.97 0.0
03 00:15 S 7 10.00 Fair CLR 76.3 70.9 83% 77 29.97 0.0
02 23:55 S 5 10.00 Fair CLR 76.3 70.7 83% 77 29.96 0.0
02 23:35 S 6 0.00 Fair CLR 76.5 70.7 82% 78 29.97 0.0
02 23:15 S 7 0.00 Fair CLR 77 72 85% 78 29.97 0.0
02 22:55 S 6 10.00 Fair CLR 77 72.5 86% 78 29.97 0.0
02 22:35 S 8 10.00 Partly Cloudy SCT110 76.1 72.5 89% 76 29.96 0.0
02 22:15 S 7 10.00 Mostly Cloudy BKN100 BKN110 76.1 72.9 90% 76 29.96 0.0
02 21:55 SE 10 G 17 10.00 Light Rain OVC090 76.1 72.7 89% 76 29.97 0.0 0.71 0.84
02 21:35 SE 12 G 18 10.00 Light Rain SCT016 SCT026 OVC100 76.8 73.4 89% 78 29.96 0.0 0.71
02 21:15 SE 14 G 20 1.25 Heavy Rain BKN013 OVC019 76.6 74.1 92% 77 29.98 0.0 0.64
02 20:55 NW 6 7.00 Heavy Rain SCT043 BKN060 OVC085 79.2 73.6 83% 83 29.98 0.0 0.02
02 20:35 E 8 0.00 Overcast SCT085 OVC110 80.6 72.7 77% 85 29.91 0.0
02 20:15 E 7 0.00 Overcast OVC110 80.1 73.2 80% 84 29.9 0.0
02 19:55 NE 10 10.00 Light Rain SCT031 BKN095 OVC110 78.8 73.2 83% 82 29.9 0.0 0.1
02 19:35 NE 14 G 28 0.00 Heavy Rain SCT038 SCT049 OVC080 79 71.8 79% 82 29.91 0.0 0.06
02 19:15 NE 17 G 30 0.00 Overcast OVC080 83.1 71.6 68% 88 29.88 0.0
02 18:55 E 3 0.00 Overcast OVC080 97.3 66.6 102.2 94.6 37% 101 29.87 0.0
02 18:35 Calm 0.00 Mostly Cloudy BKN080 BKN090 96.8 67.1 38% 101 29.87 0.0
02 18:15 SE 6 0.00 Partly Cloudy SCT080 96.4 66.7 38% 100 29.87 0.0
02 17:55 S 6 0.00 Fair CLR 96.8 67.8 39% 102 29.88 0.0
02 17:35 SE 7 0.00 Fair CLR 97.7 67.5 37% 103 29.88 0.0
02 17:15 S 3 10.00 Fair CLR 98.1 66.2 35% 102 29.88 0.0
02 16:55 SW 5 10.00 Fair CLR 100.4 65.7 32% 104 29.88 0.0
02 16:35 W 5 10.00 Mostly Cloudy SCT075 BKN095 99.5 65.3 33% 103 29.89 0.0
02 16:15 Calm 10.00 Partly Cloudy SCT075 SCT095 100.9 65.8 32% 105 29.89 0.0
02 15:55 W 3 10.00 Partly Cloudy SCT075 SCT100 100.8 66 32% 105 29.9 0.0
02 15:35 Calm 10.00 Partly Cloudy SCT075 SCT100 100.8 66 32% 105 29.9 0.0
02 15:15 SW 3 10.00 Fair CLR 100.2 66.2 33% 105 29.92 0.0
02 14:55 SW 5 10.00 Mostly Cloudy SCT070 SCT095 BKN110 100 65.7 33% 104 29.93 0.0
02 14:35 Calm 10.00 Mostly Cloudy SCT070 SCT095 BKN110 98.2 66.4 35% 102 29.93 0.0
02 14:15 W 6 10.00 Partly Cloudy SCT095 99.3 67.3 35% 104 29.95 0.0
02 13:55 W 6 10.00 Mostly Cloudy SCT070 BKN095 98.8 66.9 35% 103 29.96 0.0
02 13:35 W 8 10.00 Mostly Cloudy SCT060 BKN070 96.4 67.1 38% 101 29.97 0.0
02 13:15 W 6 10.00 Partly Cloudy SCT060 96.1 68.9 41% 102 29.98 0.0
02 12:55 Calm 10.00 Partly Cloudy SCT060 95.2 68.5 95.9 78.3 42% 100 29.99 0.0
02 12:35 Calm 0.00 Fair CLR 94.3 69.3 44% 100 30 0.0
02 12:15 W 8 0.00 Fair CLR 93.6 70 46% 100 30.01 0.0
02 11:55 SW 5 0.00 Fair CLR 93.4 70.7 48% 100 30.02 0.0
02 11:35 W 7 0.00 Fair CLR 92.5 70.9 49% 99 30.03 0.0
02 11:15 SW 7 0.00 Fair CLR 90.5 70.9 53% 97 30.03 0.0
02 10:55 SW 8 10.00 Partly Cloudy SCT032 89.1 72.5 58% 97 30.03 0.0
02 10:35 SW 8 7.00 Fair CLR 89.4 73 59% 98 30.03 0.0
02 10:15 SW 9 G 16 0.00 Fair CLR 86.5 73.6 65% 94 30.03 0.0
02 09:55 W 8 0.00 Fair CLR 85.3 73.8 69% 93 30.03 0.0
02 09:35 W 12 0.00 Fair CLR 84.6 73.9 71% 92 30.04 0.0
02 09:15 SW 6 0.00 Fair CLR 83.3 74.3 74% 90 30.04 0.0
02 08:55 W 5 0.00 Fair CLR 81.7 74.3 78% 88 30.04 0.0
02 08:35 W 6 0.00 Fair CLR 80.2 73.9 81% 85 30.04 0.0
02 08:15 Calm 0.00 Fair CLR 79.3 73.8 83% 83 30.03 0.0
02 07:55 SW 5 0.00 NULL NULL 78.3 73.6 86% 81 30.01 0.0
02 07:35 SW 5 0.00 NULL NULL 78.3 73.6 86% 81 30 0.0
02 07:15 SW 5 0.00 NULL NULL 78.3 73.6 86% 81 30 0.0
02 06:55 SW 5 10.00 Fair CLR 78.3 73.6 79.7 76.1 86% 81 30 0.0
02 06:35 SW 5 10.00 Fair CLR 78.1 73.4 86% 81 30 0.0
02 06:15 SW 5 10.00 Fair CLR 78.3 73.4 85% 81 30 0.0
02 05:55 SW 5 10.00 Fair CLR 78.4 73.4 85% 81 30 0.0
02 05:35 SW 3 0.00 Fair CLR 78.3 72.9 84% 81 30 0.0
02 05:15 SW 5 0.00 Fair CLR 78.3 72.7 83% 81 30 0.0
02 04:55 SW 5 0.00 Fair CLR 77.9 71.8 82% 80 29.99 0.0
02 04:35 W 5 0.00 Fair CLR 78.1 71.8 81% 80 29.99 0.0
02 04:15 SW 3 0.00 Fair CLR 77.9 71.6 81% 80 29.99 0.0
02 03:55 SW 3 0.00 Fair CLR 77.4 71.2 82% 79 29.99 0.0
02 03:35 Calm 10.00 Fair CLR 76.1 70.7 83% 77 29.99 0.0
02 03:15 Calm 10.00 Fair CLR 76.5 70.7 82% 78 29.99 0.0
02 02:55 Calm 10.00 Fair CLR 76.6 70.7 82% 78 30 0.0
02 02:35 Calm 10.00 Fair CLR 78.1 70.7 78% 80 30 0.0
02 02:15 Calm 10.00 Fair CLR 78.4 70.7 77% 81 30.01 0.0
02 01:55 Calm 10.00 Fair CLR 78.6 70.7 77% 81 30.01 0.0
02 01:35 Calm 0.00 Fair CLR 78.8 70.7 76% 82 30.01 0.0
02 01:15 Calm 0.00 Fair CLR 79.5 70.3 74% 83 30.01 0.0
02 00:55 Calm 0.00 Fair CLR 79.3 70.3 94.1 79.3 74% 82 30 0.0
02 00:35 Calm 0.00 Fair CLR 79.9 70.2 72% 83 30 0.0
02 00:15 Calm 0.00 Fair CLR 80.6 70.2 71% 84 30.01 0.0
01 23:55 E 3 0.00 Fair CLR 80.8 70 70% 84 30 0.0
01 23:35 SE 3 0.00 Fair CLR 81.5 70 68% 85 30.01 0.0
01 23:15 SE 3 0.00 Fair CLR 81.7 70 68% 85 30 0.0
01 22:55 Calm 0.00 Fair CLR 82.2 69.8 66% 86 30 0.0
01 22:35 SE 3 0.00 Fair CLR 83.3 69.8 64% 87 30 0.0
01 22:15 SE 6 0.00 Fair CLR 84.2 70.2 63% 89 29.99 0.0
01 21:55 E 7 0.00 Fair CLR 85.1 70 61% 90 29.98 0.0
01 21:35 SE 7 0.00 Fair CLR 86.2 69.8 58% 91 29.98 0.0
01 21:15 SE 5 0.00 Fair CLR 86.7 69.6 57% 91 29.97 0.0
01 20:55 Calm 0.00 Fair CLR 86.5 69.4 57% 91 29.96 0.0
01 20:35 Calm 0.00 Fair CLR 87.6 69.8 56% 92 29.95 0.0
01 20:15 Calm 0.00 Fair CLR 88.5 69.8 54% 94 29.94 0.0
01 19:55 SE 3 0.00 Fair CLR 90.3 68.9 49% 95 29.94 0.0
01 19:35 SE 3 0.00 Fair CLR 92.1 68.2 46% 96 29.94 0.0
01 19:15 SE 5 0.00 Fair CLR 93.6 66.7 41% 97 29.94 0.0
01 18:55 SE 6 0.00 Fair CLR 94.1 67.1 99.5 92.8 41% 98 29.94 0.0
01 18:35 E 10 0.00 Fair CLR 94.5 68.2 42% 99 29.94 0.0
01 18:15 SE 8 0.00 Fair CLR 95 68.7 42% 100 29.94 0.0
01 17:55 SE 9 10.00 Partly Cloudy SCT080 95.2 68.4 42% 100 29.94 0.0
01 17:35 E 10 G 20 10.00 Partly Cloudy SCT070 SCT080 96.6 67.3 38% 101 29.94 0.0
01 17:15 E 6 10.00 Fair CLR 99 66.6 35% 103 29.94 0.0
01 16:55 E 7 0.00 Fair CLR 98.1 66.2 35% 102 29.94 0.0
01 16:35 E 5 0.00 Partly Cloudy SCT120 95.5 65.7 37% 99 29.94 0.0
01 16:15 E 7 10.00 Mostly Cloudy SCT070 SCT080 BKN120 95.4 67.5 40% 100 29.95 0.0
01 15:55 E 8 0.00 Mostly Cloudy SCT070 BKN080 BKN090 96.6 66.7 38% 101 29.95 0.0
01 15:35 Calm 0.00 Fair CLR 97.3 67.1 37% 102 29.96 0.0
01 15:15 E 7 0.00 Partly Cloudy SCT060 SCT070 SCT090 95 67.8 41% 100 29.97 0.0
01 14:55 N 5 0.00 Partly Cloudy SCT060 95.4 68 41% 100 29.98 0.0
01 14:35 Calm 0.00 Fair CLR 97 67.3 38% 102 29.98 0.0
01 14:15 S 5 0.00 Fair CLR 96.3 67.5 39% 101 29.99 0.0
01 13:55 E 8 0.00 Partly Cloudy SCT060 SCT080 96.1 66.6 38% 100 30 0.0
01 13:35 E 6 0.00 Mostly Cloudy SCT050 BKN080 95 68.5 42% 100 30 0.0
01 13:15 Calm 0.00 Partly Cloudy SCT050 SCT080 93.4 68.2 44% 98 30.02 0.0
01 12:55 Calm 10.00 Mostly Cloudy BKN050 BKN060 93.9 69.3 94.5 74.3 45% 99 30.03 0.0
01 12:35 Calm 0.00 Mostly Cloudy SCT050 BKN060 92.7 68.9 46% 98 30.04 0.0
01 12:15 Calm 0.00 Fair CLR 91.4 69.4 49% 97 30.05 0.0
01 11:55 E 3 0.00 Partly Cloudy SCT044 SCT050 90.5 70 51% 96 30.06 0.0
01 11:35 Calm 0.00 Mostly Cloudy BKN042 91.4 71.1 51% 98 30.06 0.0
01 11:15 Calm 0.00 Fair CLR 90.1 70.9 53% 96 30.06 0.0
01 10:55 Calm 0.00 Partly Cloudy SCT034 89.8 71.6 55% 97 30.07 0.0
01 10:35 Calm 10.00 Fair CLR 87.6 72.5 61% 95 30.07 0.0
01 10:15 NW 6 10.00 Fair CLR 87.8 73.4 62% 96 30.07 0.0
01 09:55 W 3 0.00 Fair CLR 86.2 73.6 66% 94 30.07 0.0
01 09:35 W 3 0.00 Partly Cloudy SCT016 84.9 75.2 73% 94 30.07 0.0
01 09:15 NW 5 0.00 Partly Cloudy SCT014 84.2 75.9 76% 93 30.07 0.0
01 08:55 W 3 0.00 Fair CLR 82.2 76.1 82% 90 30.07 0.0
01 08:35 NW 3 0.00 Fair CLR 80.8 75.9 85% 87 30.07 0.0
01 08:15 Calm 0.00 NULL NULL 78.8 75 88% 82 30.07 0.0
01 07:55 Calm 0.00 NULL NULL 77.9 74.7 90% 80 30.07 0.0
01 07:35 Calm 10.00 Partly Cloudy SCT009 76.1 73.6 92% 76 30.06 0.0
01 07:15 Calm 10.00 Partly Cloudy SCT011 74.3 72.5 94% 30.05 0.0
01 06:55 Calm 10.00 Fair CLR 74.3 72.5 81.1 73.9 94% 30.05 0.0
01 06:35 Calm 10.00 Fair CLR 74.3 72.3 94% 30.05 0.0
01 06:15 Calm 10.00 Fair CLR 74.7 72.7 94% 30.04 0.0
01 05:55 Calm 10.00 Fair CLR 74.7 72 91% 30.04 0.0
01 05:35 Calm 10.00 Fair CLR 74.8 72.1 91% 30.03 0.0
01 05:15 Calm 10.00 Fair CLR 75.2 72.5 91% 74 30.03 0.0
01 04:55 Calm 10.00 Fair CLR 76.5 73 89% 77 30.03 0.0
01 04:35 Calm 10.00 Fair CLR 75.9 72.5 89% 76 30.03 0.0
01 04:15 Calm 10.00 Fair CLR 77 72.9 87% 78 30.04 0.0
01 03:55 Calm 10.00 Fair CLR 77.2 73.2 88% 79 30.03 0.0
01 03:35 Calm 10.00 Fair CLR 77.7 72.7 85% 80 30.04 0.0
01 03:15 Calm 10.00 Partly Cloudy SCT120 78.1 72.9 84% 81 30.04 0.0
01 02:55 Calm 10.00 Mostly Cloudy BKN110 77.9 72.7 84% 80 30.04 0.0
01 02:35 Calm 10.00 Fair CLR 79.2 73 82% 83 30.04 0.0
01 02:15 Calm 10.00 Fair CLR 79 72.9 82% 82 30.04 0.0
01 01:55 Calm 10.00 Fair CLR 79.3 72.7 80% 83 30.05 0.0
01 01:35 Calm 10.00 Fair CLR 80.1 72.9 79% 84 30.04 0.0
01 01:15 Calm 10.00 Fair CLR 80.6 72.7 77% 85 30.04 0.0
01 00:55 S 3 10.00 Fair CLR 81.3 72.9 95 81.3 76% 86 30.03 0.0
01 00:35 Calm 10.00 Fair CLR 81.7 72.7 74% 87 30.03 0.0
01 00:15 S 3 10.00 Fair CLR 82.4 72.5 72% 88 30.03 0.0
31 23:55 S 3 10.00 Fair CLR 82.8 72.5 71% 88 30.03 0.0
31 23:35 S 5 10.00 Fair CLR 83.5 72.5 70% 89 30.02 0.0
31 23:15 S 3 10.00 Fair CLR 83.8 72.1 68% 90 30.03 0.0
31 22:55 S 3 10.00 Fair CLR 84.4 72 66% 90 30.02 0.0
31 22:35 S 6 10.00 Fair CLR 85.1 71.8 64% 91 30.02 0.0
31 22:15 Calm 10.00 Fair CLR 85.3 71.1 63% 91 30.02 0.0
31 21:55 Calm 10.00 Fair CLR 85.6 70.9 61% 91 30 0.0
31 21:35 S 3 10.00 Fair CLR 86.9 70.7 59% 92 29.99 0.0
31 21:15 SE 5 10.00 Fair CLR 87.8 70.3 56% 93 29.98 0.0
31 20:55 SE 7 10.00 Fair CLR 88 69.6 55% 93 29.98 0.0
31 20:35 SE 7 10.00 Fair CLR 89.2 68.9 51% 94 29.97 0.0
31 20:15 SE 7 10.00 Fair CLR 90.3 68 48% 94 29.97 0.0
31 19:55 SE 5 10.00 Fair CLR 91.4 67.5 45% 95 29.96 0.0
31 19:35 SE 5 10.00 Fair CLR 92.5 67.5 44% 96 29.96 0.0
31 19:15 SE 10 10.00 Fair CLR 94.1 66.4 40% 97 29.95 0.0
31 18:35 E 9 10.00 Fair CLR 96.8 64 34% 99 29.95 0.0
31 18:15 E 6 10.00 Fair CLR 97.2 62.6 32% 99 29.95 0.0
31 17:55 E 3 10.00 Fair CLR 96.8 63.9 34% 99 29.96 0.0
31 17:35 SE 6 10.00 Fair CLR 97.3 64 33% 100 29.95 0.0
31 17:15 SE 8 10.00 Fair CLR 98.4 62.4 31% 100 29.96 0.0
31 16:55 S 7 10.00 Partly Cloudy SCT075 98.2 63.7 32% 100 29.96 0.0
31 16:35 S 5 10.00 Partly Cloudy SCT075 97.2 62.1 31% 98 29.97 0.0
31 16:15 E 7 10.00 Partly Cloudy SCT075 98.1 63.5 32% 100 29.98 0.0
31 15:55 S 3 10.00 Fair CLR 98.1 63 32% 100 29.98 0.0
31 15:35 SE 3 10.00 Partly Cloudy SCT070 95.7 62.4 33% 97 29.99 0.0
31 15:15 SE 8 10.00 Partly Cloudy SCT070 98.1 63.5 32% 100 30 0.0
31 14:55 SE 5 0.00 Partly Cloudy SCT070 97.3 64.4 34% 100 30.01 0.0
31 14:35 E 8 10.00 Partly Cloudy SCT070 95.7 64.9 36% 98 30.02 0.0
31 14:15 SE 7 10.00 Mostly Cloudy BKN060 96.8 64.8 35% 100 30.03 0.0
31 13:55 Calm 10.00 Partly Cloudy SCT060 SCT070 94.8 66.4 39% 98 30.04 0.0
31 13:35 SE 6 10.00 Partly Cloudy SCT060 94.3 65.7 39% 97 30.04 0.0
31 13:15 Calm 10.00 Partly Cloudy SCT060 93.7 66.2 40% 97 30.05 0.0
31 12:55 SW 3 10.00 Partly Cloudy SCT050 94.5 67.3 94.5 72.9 41% 99 30.06 0.0
31 12:35 S 6 10.00 Partly Cloudy SCT050 92.7 67.8 44% 97 30.06 0.0
31 12:15 Calm 0.00 Partly Cloudy SCT048 91.6 70 49% 97 30.07 0.0
31 11:55 Calm 0.00 Partly Cloudy SCT043 92.3 70.5 49% 99 30.07 0.0
31 11:35 Calm 0.00 Partly Cloudy SCT038 89.2 70.7 54% 95 30.08 0.0
31 11:15 SW 3 0.00 Partly Cloudy SCT034 89.1 71.1 55% 95 30.08 0.0
31 10:55 Calm 10.00 Partly Cloudy SCT030 SCT035 87.3 72.1 61% 94 30.08 0.0
31 10:35 SW 3 0.00 Partly Cloudy SCT027 87.1 73.2 64% 95 30.08 0.0
31 10:15 S 5 0.00 Partly Cloudy SCT018 SCT027 86 74.3 68% 94 30.07 0.0
31 09:55 SW 5 10.00 Mostly Cloudy SCT016 BKN027 84.9 74.7 71% 93 30.08 0.0
31 09:35 Calm 0.00 Partly Cloudy SCT016 83.5 75.9 78% 92 30.07 0.0
31 09:15 Calm 0.00 Fair CLR 81.5 76.1 84% 88 30.07 0.0
31 08:55 Calm 0.00 NULL NULL 79.9 76.1 88% 85 30.07 0.0
31 08:35 Calm 0.00 NULL NULL 77.7 75.7 94% 80 30.06 0.0
31 08:15 Calm 0.00 NULL NULL 76.3 75.2 96% 76 30.05 0.0
31 07:55 Calm 7.00 Fair CLR 74.5 73.4 96% 30.05 0.0
31 07:35 Calm 0.00 NULL NULL 73 72 96% 30.05 0.0
31 07:15 Calm 0.00 NULL NULL 73.6 72.5 96% 30.04 0.0
31 06:55 Calm 0.00 NULL NULL 73.4 72.1 80.1 72.7 96% 30.04 0.0
31 06:35 Calm 0.00 NULL NULL 72.7 71.6 96% 30.04 0.0
31 06:15 Calm 0.00 NULL NULL 73.4 72.5 97% 30.04 0.0
31 05:55 Calm 0.00 NULL NULL 72.9 71.8 96% 30.03 0.0
31 05:35 Calm 0.00 NULL NULL 74.3 73 96% 30.03 0.0
31 05:15 Calm 0.00 NULL NULL 73.6 72.3 96% 30.03 0.0
31 04:55 Calm 0.00 NULL NULL 75 73.4 95% 73 30.03 0.0
31 04:35 Calm 0.00 NULL NULL 75.2 73.6 95% 74 30.03 0.0
31 04:15 Calm 0.00 NULL NULL 75 73.4 95% 73 30.03 0.0
31 03:55 Calm 0.00 NULL NULL 75.7 73.9 94% 75 30.03 0.0
31 03:35 Calm 0.00 NULL NULL 76.1 73.8 93% 76 30.03 0.0
Date Time (cdt) Wind (mph) Vis. (mi.) Weather Sky Cond. Air Dwpt Max. Min. Relative Humidity Wind Chill (°F) Heat Index (°F) altimeter (in) sea level (mb) 1 hr 3 hr 6 hr
6 hour
Temperature (ºF) Pressure Precipitation (in)